createdAt,value
2022-09-27T00:00:31.382Z,71.49
2022-09-27T00:02:58.122Z,71.41
2022-09-27T00:05:24.631Z,71.47
2022-09-27T00:07:51.178Z,71.67
2022-09-27T00:10:17.779Z,71.57
2022-09-27T00:12:44.348Z,71.55
2022-09-27T00:15:11.032Z,71.64
2022-09-27T00:17:38.895Z,71.64
2022-09-27T00:20:07.499Z,71.74
2022-09-27T00:22:34.630Z,71.65
2022-09-27T00:25:01.211Z,71.68
2022-09-27T00:27:28.013Z,71.65
2022-09-27T00:29:54.593Z,71.75
2022-09-27T00:32:21.294Z,71.78
2022-09-27T00:34:47.792Z,71.57
2022-09-27T00:37:14.313Z,71.69
2022-09-27T00:39:40.859Z,71.80
2022-09-27T00:42:11.955Z,71.52
2022-09-27T00:44:38.752Z,71.78
2022-09-27T00:47:25.188Z,71.43
2022-09-27T00:50:00.137Z,71.49
2022-09-27T00:52:32.531Z,71.42
2022-09-27T00:55:04.625Z,71.44
2022-09-27T00:57:31.400Z,71.65
2022-09-27T01:00:12.223Z,71.36
2022-09-27T01:02:42.954Z,71.62
2022-09-27T01:05:12.508Z,71.68
2022-09-27T01:07:39.013Z,71.74
2022-09-27T01:10:07.254Z,71.67
2022-09-27T01:13:06.683Z,71.56
2022-09-27T01:15:51.316Z,71.65
2022-09-27T01:18:42.151Z,71.57
2022-09-27T01:21:41.678Z,71.50
2022-09-27T01:24:31.295Z,71.83
2022-09-27T01:27:23.923Z,71.48
2022-09-27T01:30:13.390Z,71.53
2022-09-27T01:33:05.135Z,71.60
2022-09-27T01:35:43.794Z,71.53
2022-09-27T01:38:18.400Z,71.72
2022-09-27T01:40:57.828Z,71.73
2022-09-27T01:43:34.380Z,71.69
2022-09-27T01:46:21.389Z,71.92
2022-09-27T01:48:50.776Z,71.80
2022-09-27T01:51:28.124Z,71.69
2022-09-27T01:54:01.142Z,71.94
2022-09-27T01:56:32.347Z,71.65
2022-09-27T01:59:07.502Z,71.71
2022-09-27T02:01:38.581Z,71.80
2022-09-27T02:04:08.816Z,71.87
2022-09-27T02:06:40.057Z,71.83
2022-09-27T02:09:12.224Z,71.53
2022-09-27T02:11:43.484Z,71.90
2022-09-27T02:14:20.029Z,71.68
2022-09-27T02:16:51.783Z,71.55
2022-09-27T02:19:30.996Z,71.72
2022-09-27T02:22:18.813Z,71.44
2022-09-27T02:24:53.342Z,71.83
2022-09-27T02:27:29.616Z,71.50
2022-09-27T02:30:06.165Z,71.52
2022-09-27T02:32:33.555Z,71.84
2022-09-27T02:35:06.014Z,71.62
2022-09-27T02:37:33.428Z,71.73
2022-09-27T02:40:00.765Z,71.57
2022-09-27T02:42:28.474Z,71.58
2022-09-27T02:44:55.104Z,72.04
2022-09-27T02:47:41.062Z,71.68
2022-09-27T02:50:25.687Z,71.64
2022-09-27T02:53:11.472Z,71.38
2022-09-27T02:55:52.233Z,71.52
2022-09-27T02:58:45.107Z,71.69
2022-09-27T03:01:48.920Z,71.51
2022-09-27T03:04:25.685Z,71.70
2022-09-27T03:06:53.760Z,71.73
2022-09-27T03:09:21.524Z,71.93
2022-09-27T03:11:48.298Z,72.07
2022-09-27T03:14:15.276Z,72.23
2022-09-27T03:16:41.834Z,72.11
2022-09-27T03:19:09.768Z,71.98
2022-09-27T03:21:36.347Z,71.97
2022-09-27T03:24:03.471Z,71.83
2022-09-27T03:26:29.994Z,72.00
2022-09-27T03:28:56.519Z,71.92
2022-09-27T03:31:23.029Z,71.70
2022-09-27T03:33:49.598Z,71.85
2022-09-27T03:36:16.201Z,71.65
2022-09-27T03:38:42.718Z,71.65
2022-09-27T03:41:09.384Z,71.54
2022-09-27T03:43:36.082Z,71.64
2022-09-27T03:46:02.631Z,71.86
2022-09-27T03:48:31.215Z,71.95
2022-09-27T03:50:57.774Z,71.72
2022-09-27T03:53:24.744Z,71.87
2022-09-27T03:55:51.256Z,71.79
2022-09-27T03:58:17.764Z,71.84
2022-09-27T04:00:46.269Z,71.98
2022-09-27T04:03:13.563Z,71.69
2022-09-27T04:05:40.137Z,71.65
2022-09-27T04:08:07.950Z,71.73
2022-09-27T04:10:34.495Z,71.90
2022-09-27T04:13:01.049Z,71.99
2022-09-27T04:15:27.642Z,71.87
2022-09-27T04:17:54.179Z,71.64
2022-09-27T04:20:20.732Z,71.91
2022-09-27T04:22:47.335Z,71.75
2022-09-27T04:25:13.957Z,71.40
2022-09-27T04:27:45.795Z,71.10
2022-09-27T04:30:13.493Z,71.51
2022-09-27T04:32:44.854Z,71.33
2022-09-27T04:35:31.506Z,71.65
2022-09-27T04:37:58.471Z,71.79
2022-09-27T04:40:25.470Z,71.86
2022-09-27T04:42:52.292Z,71.90
2022-09-27T04:45:19.699Z,71.89
2022-09-27T04:47:50.297Z,71.97
2022-09-27T04:50:18.352Z,72.05
2022-09-27T04:52:44.909Z,72.14
2022-09-27T04:55:11.455Z,71.83
2022-09-27T04:57:38.042Z,71.96
2022-09-27T05:00:05.285Z,71.91
2022-09-27T05:02:32.043Z,71.83
2022-09-27T05:04:59.288Z,71.89
2022-09-27T05:07:27.123Z,72.02
2022-09-27T05:09:54.017Z,72.00
2022-09-27T05:12:21.170Z,71.94
2022-09-27T05:14:48.085Z,72.24
2022-09-27T05:17:14.790Z,71.81
2022-09-27T05:19:41.280Z,72.13
2022-09-27T05:22:08.121Z,71.96
2022-09-27T05:24:34.811Z,72.06
2022-09-27T05:27:01.965Z,71.99
2022-09-27T05:29:29.053Z,71.88
2022-09-27T05:31:55.542Z,72.09
2022-09-27T05:34:22.475Z,72.15
2022-09-27T05:36:49.911Z,72.01
2022-09-27T05:39:17.363Z,71.60
2022-09-27T05:41:44.232Z,71.43
2022-09-27T05:44:10.827Z,71.25
2022-09-27T05:46:39.122Z,71.44
2022-09-27T05:49:06.165Z,71.49
2022-09-27T05:51:32.728Z,71.50
2022-09-27T05:53:59.522Z,71.58
2022-09-27T05:56:26.398Z,71.79
2022-09-27T05:58:52.935Z,72.01
2022-09-27T06:01:19.520Z,72.17
2022-09-27T06:03:47.277Z,72.36
2022-09-27T06:06:15.629Z,72.60
2022-09-27T06:08:42.196Z,72.72
2022-09-27T06:11:12.484Z,72.63
2022-09-27T06:13:39.650Z,72.71
2022-09-27T06:16:07.512Z,72.57
2022-09-27T06:18:34.515Z,72.67
2022-09-27T06:21:02.487Z,72.56
2022-09-27T06:23:32.655Z,72.53
2022-09-27T06:26:04.975Z,72.52
2022-09-27T06:28:32.662Z,72.57
2022-09-27T06:31:02.099Z,72.63
2022-09-27T06:33:28.798Z,72.75
2022-09-27T06:35:55.626Z,72.91
2022-09-27T06:38:23.174Z,72.96
2022-09-27T06:40:49.736Z,72.86
2022-09-27T06:43:19.894Z,72.84
2022-09-27T06:45:47.356Z,73.03
2022-09-27T06:48:16.167Z,73.10
2022-09-27T06:50:44.602Z,73.07
2022-09-27T06:53:13.730Z,72.98
2022-09-27T06:55:40.971Z,73.07
2022-09-27T06:58:28.936Z,72.97
2022-09-27T07:00:55.486Z,73.00
2022-09-27T07:03:23.981Z,72.81
2022-09-27T07:05:59.105Z,72.69
2022-09-27T07:08:28.786Z,72.68
2022-09-27T07:11:01.008Z,72.81
2022-09-27T07:13:29.769Z,72.81
2022-09-27T07:15:56.251Z,72.66
2022-09-27T07:18:22.860Z,72.93
2022-09-27T07:20:50.853Z,73.01
2022-09-27T07:23:17.438Z,73.02
2022-09-27T07:25:43.991Z,72.96
2022-09-27T07:28:21.004Z,72.68
2022-09-27T07:30:48.838Z,72.69
2022-09-27T07:33:15.609Z,72.46
2022-09-27T07:35:43.775Z,72.26
2022-09-27T07:38:14.109Z,71.76
2022-09-27T07:40:45.237Z,71.98
2022-09-27T07:43:12.438Z,72.59
2022-09-27T07:45:39.058Z,72.55
2022-09-27T07:48:07.377Z,72.32
2022-09-27T07:50:34.181Z,72.50
2022-09-27T07:53:00.993Z,72.55
2022-09-27T07:55:27.566Z,72.73
2022-09-27T07:58:03.813Z,72.78
2022-09-27T08:00:30.581Z,72.66
2022-09-27T08:02:57.188Z,71.88
2022-09-27T08:05:23.769Z,71.71
2022-09-27T08:07:55.619Z,70.68
2022-09-27T08:10:22.098Z,70.78
2022-09-27T08:12:48.611Z,70.46
2022-09-27T08:15:15.244Z,70.20
2022-09-27T08:17:42.204Z,70.12
2022-09-27T08:20:09.233Z,69.82
2022-09-27T08:22:40.973Z,69.48
2022-09-27T08:25:07.925Z,69.88
2022-09-27T08:27:34.459Z,69.97
2022-09-27T08:30:00.928Z,70.26
2022-09-27T08:32:28.841Z,70.46
2022-09-27T08:34:55.338Z,70.28
2022-09-27T08:37:21.834Z,70.10
2022-09-27T08:39:48.436Z,70.43
2022-09-27T08:42:24.165Z,70.80
2022-09-27T08:45:17.744Z,69.74
2022-09-27T08:47:55.233Z,69.96
2022-09-27T08:50:39.016Z,69.69
2022-09-27T08:53:25.319Z,69.14
2022-09-27T08:55:54.921Z,69.75
2022-09-27T08:58:28.605Z,69.56
2022-09-27T09:01:01.648Z,68.82
2022-09-27T09:03:29.444Z,67.57
2022-09-27T09:06:05.042Z,67.22
2022-09-27T09:08:42.948Z,67.87
2022-09-27T09:11:57.425Z,67.22
2022-09-27T09:14:49.002Z,67.59
2022-09-27T09:17:34.061Z,68.59
2022-09-27T09:20:21.920Z,67.65
2022-09-27T09:23:19.072Z,67.60
2022-09-27T09:25:56.957Z,67.75
2022-09-27T09:28:40.640Z,67.57
2022-09-27T09:31:24.061Z,68.78
2022-09-27T09:34:10.247Z,67.56
2022-09-27T09:36:58.989Z,67.29
2022-09-27T09:40:08.886Z,67.29
2022-09-27T09:42:40.346Z,67.68
2022-09-27T09:45:21.180Z,66.64
2022-09-27T09:47:54.837Z,67.04
2022-09-27T09:50:32.845Z,66.36
2022-09-27T09:53:29.569Z,66.41
2022-09-27T09:56:02.640Z,66.43
2022-09-27T09:58:36.912Z,66.28
2022-09-27T10:01:20.044Z,65.85
2022-09-27T10:03:46.979Z,66.82
2022-09-27T10:06:15.983Z,66.74
2022-09-27T10:08:42.907Z,66.83
2022-09-27T10:11:20.312Z,65.94
2022-09-27T10:13:47.556Z,66.56
2022-09-27T10:16:17.225Z,65.58
2022-09-27T10:18:49.694Z,65.72
2022-09-27T10:21:28.113Z,66.03
2022-09-27T10:24:18.429Z,66.84
2022-09-27T10:26:48.503Z,67.20
2022-09-27T10:29:20.938Z,65.85
2022-09-27T10:31:49.158Z,66.42
2022-09-27T10:34:21.566Z,66.54
2022-09-27T10:37:02.786Z,65.90
2022-09-27T10:39:29.297Z,67.32
2022-09-27T10:41:55.821Z,67.78
2022-09-27T10:44:32.620Z,65.97
2022-09-27T10:47:07.588Z,66.12
2022-09-27T10:49:40.131Z,64.84
2022-09-27T10:52:16.035Z,64.75
2022-09-27T10:54:52.107Z,64.22
2022-09-27T10:57:21.783Z,62.14
2022-09-27T10:59:54.926Z,60.61
2022-09-27T11:02:29.780Z,60.16
2022-09-27T11:05:15.341Z,60.01
2022-09-27T11:07:53.478Z,61.25
2022-09-27T11:10:37.379Z,62.40
2022-09-27T11:13:19.517Z,61.97
2022-09-27T11:16:17.475Z,61.58
2022-09-27T11:18:54.847Z,62.08
2022-09-27T11:21:48.183Z,59.77
2022-09-27T11:24:20.842Z,59.22
2022-09-27T11:26:50.373Z,59.90
2022-09-27T11:29:41.796Z,62.25
2022-09-27T11:32:35.530Z,59.35
2022-09-27T11:35:26.859Z,58.97
2022-09-27T11:38:48.120Z,57.76
2022-09-27T11:41:35.238Z,55.82
2022-09-27T11:44:32.810Z,55.68
2022-09-27T11:47:17.114Z,56.90
2022-09-27T11:50:18.732Z,56.48
2022-09-27T11:53:15.138Z,57.12
2022-09-27T11:55:47.247Z,57.75
2022-09-27T11:58:26.407Z,58.31
2022-09-27T12:00:56.851Z,58.89
2022-09-27T12:04:01.067Z,60.08
2022-09-27T12:06:36.805Z,61.24
2022-09-27T12:09:03.275Z,62.45
2022-09-27T12:11:41.463Z,62.88
2022-09-27T12:14:24.629Z,63.75
2022-09-27T12:16:55.641Z,64.50
2022-09-27T12:19:30.506Z,64.60
2022-09-27T12:22:01.038Z,64.28
2022-09-27T12:24:28.328Z,63.37
2022-09-27T12:27:00.318Z,61.69
2022-09-27T12:29:33.954Z,61.84
2022-09-27T12:32:13.629Z,61.34
2022-09-27T12:34:51.891Z,61.88
2022-09-27T12:37:28.182Z,61.79
2022-09-27T12:40:06.386Z,59.36
2022-09-27T12:42:39.347Z,57.91
2022-09-27T12:45:10.919Z,58.40
2022-09-27T12:48:16.425Z,58.20
2022-09-27T12:51:10.553Z,58.44
2022-09-27T12:53:55.492Z,58.95
2022-09-27T12:56:58.088Z,57.64
2022-09-27T12:59:46.278Z,57.49
2022-09-27T13:03:04.047Z,58.19
2022-09-27T13:05:41.567Z,57.78
2022-09-27T13:08:30.005Z,58.32
2022-09-27T13:11:23.498Z,58.77
2022-09-27T13:13:54.434Z,59.28
2022-09-27T13:16:20.951Z,59.46
2022-09-27T13:18:56.283Z,58.59
2022-09-27T13:21:51.140Z,58.66
2022-09-27T13:24:31.253Z,57.58
2022-09-27T13:27:01.550Z,59.13
2022-09-27T13:29:31.761Z,59.77
2022-09-27T13:31:58.619Z,59.29
2022-09-27T13:34:40.941Z,58.04
2022-09-27T13:37:29.208Z,58.54
2022-09-27T13:40:22.525Z,57.46
2022-09-27T13:43:17.732Z,56.63
2022-09-27T13:45:57.713Z,56.55
2022-09-27T13:48:30.641Z,56.99
2022-09-27T13:51:14.676Z,57.64
2022-09-27T13:53:46.658Z,57.95
2022-09-27T13:56:48.283Z,59.07
2022-09-27T13:59:21.029Z,59.57
2022-09-27T14:01:53.169Z,60.47
2022-09-27T14:04:28.397Z,61.42
2022-09-27T14:07:00.405Z,61.83
2022-09-27T14:09:33.763Z,62.77
2022-09-27T14:12:05.399Z,62.75
2022-09-27T14:14:33.480Z,63.32
2022-09-27T14:17:01.343Z,63.89
2022-09-27T14:19:29.071Z,64.50
2022-09-27T14:21:56.888Z,64.70
2022-09-27T14:24:33.417Z,64.92
2022-09-27T14:27:38.266Z,65.20
2022-09-27T14:30:16.070Z,64.90
2022-09-27T14:32:51.330Z,65.53
2022-09-27T14:35:37.679Z,65.63
2022-09-27T14:38:33.081Z,65.24
2022-09-27T14:40:58.573Z,65.19
2022-09-27T14:43:26.135Z,65.48
2022-09-27T14:45:57.971Z,65.74
2022-09-27T14:48:28.932Z,65.52
2022-09-27T14:51:06.203Z,64.80
2022-09-27T14:53:41.183Z,64.64
2022-09-27T14:56:16.255Z,63.57
2022-09-27T14:58:47.784Z,62.83
2022-09-27T15:01:17.247Z,62.03
2022-09-27T15:03:45.711Z,61.37
2022-09-27T15:06:12.902Z,61.65
2022-09-27T15:08:40.253Z,61.63
2022-09-27T15:11:08.097Z,61.40
2022-09-27T15:13:37.542Z,61.14
2022-09-27T15:16:11.151Z,60.93
2022-09-27T15:18:37.631Z,61.14
2022-09-27T15:21:05.862Z,61.60
2022-09-27T15:23:43.520Z,62.13
2022-09-27T15:26:09.992Z,62.49
2022-09-27T15:28:39.353Z,62.64
2022-09-27T15:31:08.177Z,62.64
2022-09-27T15:33:35.862Z,62.83
2022-09-27T15:36:09.048Z,62.57
2022-09-27T15:38:44.232Z,62.57
2022-09-27T15:41:21.140Z,62.57
2022-09-27T15:43:50.207Z,62.69
2022-09-27T15:46:22.980Z,62.79
2022-09-27T15:49:17.875Z,62.63
2022-09-27T15:51:46.391Z,62.91
2022-09-27T15:54:12.988Z,62.97
2022-09-27T15:56:40.061Z,63.25
2022-09-27T15:59:14.087Z,63.07
2022-09-27T16:01:40.674Z,62.87
2022-09-27T16:04:09.115Z,63.50
2022-09-27T16:06:35.801Z,63.56
2022-09-27T16:09:02.307Z,63.55
2022-09-27T16:11:28.825Z,63.36
2022-09-27T16:13:55.334Z,63.79
2022-09-27T16:16:22.840Z,63.59
2022-09-27T16:18:49.670Z,63.47
2022-09-27T16:21:16.472Z,63.60
2022-09-27T16:23:43.048Z,63.50
2022-09-27T16:26:09.549Z,63.75
2022-09-27T16:28:36.152Z,63.78
2022-09-27T16:31:04.938Z,63.84
2022-09-27T16:33:32.785Z,63.95
2022-09-27T16:36:01.431Z,64.12
2022-09-27T16:38:30.356Z,63.87
2022-09-27T16:41:02.301Z,63.63
2022-09-27T16:43:30.280Z,63.64
2022-09-27T16:46:04.471Z,63.60
2022-09-27T16:48:30.962Z,63.78
2022-09-27T16:51:25.718Z,63.74
2022-09-27T16:53:52.266Z,63.46
2022-09-27T16:56:20.219Z,63.67
2022-09-27T16:58:48.007Z,63.64
2022-09-27T17:01:16.840Z,63.64
2022-09-27T17:03:45.442Z,63.53
2022-09-27T17:06:11.921Z,63.77
2022-09-27T17:08:38.520Z,63.76
2022-09-27T17:11:06.447Z,63.75
2022-09-27T17:13:33.753Z,63.54
2022-09-27T17:16:04.233Z,63.49
2022-09-27T17:18:30.903Z,63.80
2022-09-27T17:21:03.394Z,63.74
2022-09-27T17:23:31.409Z,63.24
2022-09-27T17:26:05.557Z,63.38
2022-09-27T17:28:32.132Z,63.44
2022-09-27T17:31:10.011Z,63.71
2022-09-27T17:33:43.416Z,63.57
2022-09-27T17:36:17.407Z,63.59
2022-09-27T17:38:45.244Z,63.88
2022-09-27T17:41:14.805Z,63.76
2022-09-27T17:43:50.246Z,63.70
2022-09-27T17:46:19.152Z,63.79
2022-09-27T17:49:05.197Z,63.82
2022-09-27T17:51:33.203Z,63.90
2022-09-27T17:54:00.218Z,63.88
2022-09-27T17:56:27.121Z,63.85
2022-09-27T17:58:56.116Z,63.60
2022-09-27T18:01:24.633Z,63.37
2022-09-27T18:04:00.698Z,63.46
2022-09-27T18:06:28.360Z,63.49
2022-09-27T18:08:55.984Z,63.69
2022-09-27T18:11:28.510Z,63.36
2022-09-27T18:13:58.745Z,63.43
2022-09-27T18:16:29.653Z,63.45
2022-09-27T18:18:58.055Z,63.68
2022-09-27T18:21:26.815Z,63.68
2022-09-27T18:23:56.647Z,63.83
2022-09-27T18:26:24.195Z,63.89
2022-09-27T18:28:56.021Z,63.66
2022-09-27T18:31:23.617Z,63.66
2022-09-27T18:33:50.586Z,63.52
2022-09-27T18:36:19.055Z,63.66
2022-09-27T18:38:46.991Z,63.55
2022-09-27T18:41:16.094Z,63.47
2022-09-27T18:43:44.809Z,63.53
2022-09-27T18:46:34.532Z,63.46
2022-09-27T18:49:02.361Z,63.61
2022-09-27T18:51:29.235Z,63.54
2022-09-27T18:54:03.965Z,63.43
2022-09-27T18:56:31.174Z,63.49
2022-09-27T18:58:57.932Z,63.22
2022-09-27T19:01:28.123Z,63.28
2022-09-27T19:03:54.671Z,63.18
2022-09-27T19:06:23.580Z,63.14
2022-09-27T19:08:58.792Z,62.85
2022-09-27T19:11:26.779Z,63.00
2022-09-27T19:13:55.347Z,63.12
2022-09-27T19:16:23.490Z,63.09
2022-09-27T19:18:50.822Z,63.23
2022-09-27T19:21:20.504Z,63.01
2022-09-27T19:23:48.862Z,63.04
2022-09-27T19:26:18.482Z,63.13
2022-09-27T19:28:46.537Z,63.12
2022-09-27T19:31:16.322Z,63.05
2022-09-27T19:33:43.323Z,63.29
2022-09-27T19:36:12.147Z,63.41
2022-09-27T19:38:39.413Z,63.42
2022-09-27T19:41:08.240Z,63.37
2022-09-27T19:43:35.116Z,63.57
2022-09-27T19:46:09.099Z,63.45
2022-09-27T19:48:37.005Z,63.36
2022-09-27T19:51:04.098Z,63.45
2022-09-27T19:53:32.419Z,63.48
2022-09-27T19:56:04.394Z,63.46
2022-09-27T19:58:32.487Z,63.61
2022-09-27T20:01:10.033Z,63.60
2022-09-27T20:03:39.062Z,63.58
2022-09-27T20:06:07.749Z,63.69
2022-09-27T20:08:34.843Z,63.62
2022-09-27T20:11:10.049Z,63.66
2022-09-27T20:13:37.822Z,63.69
2022-09-27T20:16:15.782Z,63.67
2022-09-27T20:18:47.498Z,63.77
2022-09-27T20:21:14.986Z,63.50
2022-09-27T20:23:42.172Z,63.64
2022-09-27T20:26:13.995Z,63.76
2022-09-27T20:28:42.910Z,64.05
2022-09-27T20:31:13.196Z,63.92
2022-09-27T20:33:42.688Z,63.95
2022-09-27T20:36:37.332Z,64.13
2022-09-27T20:39:12.187Z,64.09
2022-09-27T20:41:43.609Z,64.04
2022-09-27T20:44:18.375Z,64.09
2022-09-27T20:46:46.215Z,64.23
2022-09-27T20:49:16.036Z,64.32
2022-09-27T20:51:44.195Z,64.27
2022-09-27T20:54:12.672Z,64.39
2022-09-27T20:56:44.545Z,64.55
2022-09-27T20:59:22.343Z,64.71
2022-09-27T21:01:51.354Z,64.47
2022-09-27T21:04:19.238Z,64.45
2022-09-27T21:06:46.051Z,64.32
2022-09-27T21:09:18.731Z,64.35
2022-09-27T21:11:51.771Z,64.57
2022-09-27T21:14:18.554Z,64.44
2022-09-27T21:16:45.296Z,64.61
2022-09-27T21:19:11.876Z,64.60
2022-09-27T21:21:38.387Z,64.62
2022-09-27T21:24:05.336Z,64.64
2022-09-27T21:26:33.351Z,64.88
2022-09-27T21:29:01.581Z,65.07
2022-09-27T21:31:32.468Z,65.24
2022-09-27T21:34:01.132Z,65.21
2022-09-27T21:36:30.251Z,65.13
2022-09-27T21:38:57.227Z,64.93
2022-09-27T21:41:24.208Z,64.97
2022-09-27T21:43:50.828Z,64.85
2022-09-27T21:46:28.438Z,65.08
2022-09-27T21:48:57.499Z,64.80
2022-09-27T21:51:29.754Z,64.84
2022-09-27T21:53:59.055Z,64.85
2022-09-27T21:56:27.945Z,65.06
2022-09-27T21:58:54.447Z,65.11
2022-09-27T22:01:23.492Z,65.28
2022-09-27T22:03:52.011Z,65.41
2022-09-27T22:06:29.291Z,65.51
2022-09-27T22:08:56.817Z,65.42
2022-09-27T22:11:26.104Z,65.19
2022-09-27T22:13:52.873Z,65.33
2022-09-27T22:16:20.958Z,65.05
2022-09-27T22:18:49.888Z,65.21
2022-09-27T22:21:19.927Z,65.19
2022-09-27T22:23:46.480Z,65.05
2022-09-27T22:26:17.048Z,65.13
2022-09-27T22:28:45.135Z,65.18
2022-09-27T22:31:15.238Z,65.15
2022-09-27T22:33:42.958Z,65.30
2022-09-27T22:36:09.470Z,65.55
2022-09-27T22:38:36.056Z,65.74
2022-09-27T22:41:03.540Z,66.01
2022-09-27T22:43:30.699Z,65.98
2022-09-27T22:46:00.220Z,65.94
2022-09-27T22:48:31.147Z,66.25
2022-09-27T22:50:58.936Z,66.37
2022-09-27T22:53:26.912Z,66.17
2022-09-27T22:56:04.101Z,66.42
2022-09-27T22:58:31.621Z,65.96
2022-09-27T23:00:58.138Z,66.15
2022-09-27T23:03:24.918Z,66.26
2022-09-27T23:05:51.471Z,66.20
2022-09-27T23:08:17.996Z,66.21
2022-09-27T23:10:44.480Z,66.17
2022-09-27T23:13:11.011Z,66.14
2022-09-27T23:15:37.555Z,66.05
2022-09-27T23:18:06.285Z,66.05
2022-09-27T23:20:32.786Z,66.25
2022-09-27T23:22:59.332Z,66.00
2022-09-27T23:25:26.009Z,66.00
2022-09-27T23:27:53.467Z,66.07
2022-09-27T23:30:21.599Z,65.96
2022-09-27T23:32:55.644Z,65.98
2022-09-27T23:35:23.144Z,65.79
2022-09-27T23:37:52.886Z,65.93
2022-09-27T23:40:19.427Z,65.89
2022-09-27T23:42:45.951Z,65.71
2022-09-27T23:45:14.237Z,65.92
2022-09-27T23:47:40.745Z,65.74
2022-09-27T23:50:08.206Z,65.82
2022-09-27T23:52:34.721Z,65.60
2022-09-27T23:55:01.194Z,65.61
2022-09-27T23:57:27.699Z,65.85
2022-09-27T23:59:54.173Z,65.96
